createdAt,value
2022-08-20T00:02:14.450Z,22.06
2022-08-20T00:04:41.762Z,22.36
2022-08-20T00:07:09.024Z,21.97
2022-08-20T00:09:36.982Z,21.83
2022-08-20T00:12:07.531Z,21.74
2022-08-20T00:14:37.143Z,21.87
2022-08-20T00:17:05.951Z,21.95
2022-08-20T00:19:34.233Z,21.92
2022-08-20T00:22:01.466Z,21.50
2022-08-20T00:24:28.721Z,21.58
2022-08-20T00:26:56.130Z,22.11
2022-08-20T00:29:23.356Z,22.29
2022-08-20T00:31:51.102Z,21.95
2022-08-20T00:34:18.931Z,21.87
2022-08-20T00:36:46.943Z,21.92
2022-08-20T00:39:14.623Z,21.95
2022-08-20T00:41:41.967Z,21.90
2022-08-20T00:44:18.539Z,21.90
2022-08-20T00:46:47.087Z,21.98
2022-08-20T00:49:27.933Z,22.07
2022-08-20T00:52:16.559Z,21.78
2022-08-20T00:55:01.336Z,22.15
2022-08-20T00:58:48.120Z,21.79
2022-08-20T01:01:15.875Z,21.95
2022-08-20T01:03:43.720Z,22.13
2022-08-20T01:07:33.528Z,22.09
2022-08-20T01:10:19.525Z,22.04
2022-08-20T01:14:12.963Z,21.99
2022-08-20T01:16:40.699Z,21.93
2022-08-20T01:20:23.899Z,21.97
2022-08-20T01:24:06.666Z,21.93
2022-08-20T01:27:55.195Z,22.16
2022-08-20T01:31:38.510Z,22.07
2022-08-20T01:34:11.724Z,21.84
2022-08-20T01:37:54.524Z,21.67
2022-08-20T01:40:48.766Z,21.70
2022-08-20T01:44:31.556Z,21.75
2022-08-20T01:47:31.367Z,21.59
2022-08-20T01:50:18.482Z,21.01
2022-08-20T01:54:01.349Z,21.01
2022-08-20T01:56:32.180Z,21.18
2022-08-20T01:59:06.857Z,21.36
2022-08-20T02:01:46.283Z,21.42
2022-08-20T02:04:18.209Z,21.24
2022-08-20T02:06:57.064Z,21.91
2022-08-20T02:09:30.692Z,21.46
2022-08-20T02:12:00.991Z,21.41
2022-08-20T02:14:30.360Z,21.21
2022-08-20T02:16:58.857Z,21.24
2022-08-20T02:19:47.425Z,21.03
2022-08-20T02:22:53.027Z,21.36
2022-08-20T02:25:27.175Z,21.86
2022-08-20T02:28:07.826Z,21.75
2022-08-20T02:30:46.853Z,21.48
2022-08-20T02:33:17.992Z,21.64
2022-08-20T02:35:49.816Z,21.40
2022-08-20T02:38:17.539Z,21.20
2022-08-20T02:40:51.866Z,21.10
2022-08-20T02:43:20.134Z,21.17
2022-08-20T02:45:47.813Z,21.01
2022-08-20T02:48:21.297Z,20.89
2022-08-20T02:51:01.718Z,20.77
2022-08-20T02:53:33.850Z,20.79
2022-08-20T02:56:01.955Z,21.05
2022-08-20T02:58:29.239Z,21.05
2022-08-20T03:00:56.825Z,20.71
2022-08-20T03:03:24.871Z,20.77
2022-08-20T03:05:57.631Z,20.79
2022-08-20T03:08:27.172Z,20.69
2022-08-20T03:10:55.501Z,20.83
2022-08-20T03:13:24.204Z,20.99
2022-08-20T03:16:00.357Z,21.21
2022-08-20T03:18:37.481Z,21.01
2022-08-20T03:21:08.013Z,20.80
2022-08-20T03:23:40.400Z,20.72
2022-08-20T03:26:12.892Z,20.70
2022-08-20T03:28:41.710Z,20.51
2022-08-20T03:31:10.141Z,20.45
2022-08-20T03:33:52.692Z,20.58
2022-08-20T03:36:28.245Z,20.56
2022-08-20T03:39:01.457Z,20.48
2022-08-20T03:41:29.160Z,20.37
2022-08-20T03:43:56.549Z,20.31
2022-08-20T03:46:25.153Z,20.24
2022-08-20T03:48:59.981Z,20.22
2022-08-20T03:51:35.147Z,20.61
2022-08-20T03:54:20.289Z,20.33
2022-08-20T03:56:47.741Z,20.16
2022-08-20T03:59:15.407Z,20.01
2022-08-20T04:01:46.143Z,20.17
2022-08-20T04:04:15.169Z,20.20
2022-08-20T04:06:43.458Z,20.58
2022-08-20T04:09:12.338Z,20.60
2022-08-20T04:11:41.536Z,20.91
2022-08-20T04:14:11.408Z,20.79
2022-08-20T04:16:45.527Z,20.50
2022-08-20T04:19:15.158Z,20.38
2022-08-20T04:21:42.465Z,20.54
2022-08-20T04:24:22.154Z,20.71
2022-08-20T04:26:58.912Z,20.78
2022-08-20T04:29:32.174Z,20.72
2022-08-20T04:32:03.393Z,20.65
2022-08-20T04:34:35.072Z,20.67
2022-08-20T04:37:02.695Z,20.67
2022-08-20T04:39:29.958Z,20.68
2022-08-20T04:41:57.378Z,20.81
2022-08-20T04:44:24.681Z,20.65
2022-08-20T04:46:51.975Z,20.42
2022-08-20T04:49:26.209Z,20.49
2022-08-20T04:51:54.768Z,20.35
2022-08-20T04:54:22.201Z,20.57
2022-08-20T04:56:49.556Z,20.98
2022-08-20T04:59:16.801Z,21.19
2022-08-20T05:01:44.031Z,21.05
2022-08-20T05:04:11.280Z,21.05
2022-08-20T05:06:40.623Z,21.35
2022-08-20T05:09:07.927Z,21.46
2022-08-20T05:11:36.952Z,21.40
2022-08-20T05:14:09.853Z,21.36
2022-08-20T05:16:41.075Z,21.37
2022-08-20T05:19:12.592Z,21.43
2022-08-20T05:21:40.998Z,21.13
2022-08-20T05:24:10.143Z,21.08
2022-08-20T05:26:37.471Z,20.74
2022-08-20T05:29:06.840Z,20.71
2022-08-20T05:31:35.543Z,20.91
2022-08-20T05:34:11.720Z,21.09
2022-08-20T05:36:49.211Z,20.87
2022-08-20T05:39:20.375Z,21.20
2022-08-20T05:41:51.248Z,21.04
2022-08-20T05:44:19.762Z,21.14
2022-08-20T05:46:48.575Z,20.91
2022-08-20T05:49:21.764Z,20.73
2022-08-20T05:51:51.323Z,20.85
2022-08-20T05:54:18.816Z,20.76
2022-08-20T05:56:46.103Z,20.97
2022-08-20T05:59:14.106Z,21.12
2022-08-20T06:01:43.064Z,21.11
2022-08-20T06:04:28.631Z,21.17
2022-08-20T06:07:06.840Z,20.98
2022-08-20T06:09:36.213Z,21.21
2022-08-20T06:12:07.728Z,21.35
2022-08-20T06:14:35.939Z,21.35
2022-08-20T06:17:10.520Z,21.55
2022-08-20T06:19:44.177Z,22.01
2022-08-20T06:22:18.416Z,21.87
2022-08-20T06:24:50.196Z,21.92
2022-08-20T06:27:18.377Z,22.03
2022-08-20T06:29:46.099Z,22.21
2022-08-20T06:32:14.380Z,22.49
2022-08-20T06:34:49.043Z,22.55
2022-08-20T06:37:31.552Z,22.93
2022-08-20T06:40:18.337Z,22.95
2022-08-20T06:42:48.739Z,23.13
2022-08-20T06:45:25.801Z,23.50
2022-08-20T06:47:58.526Z,23.73
2022-08-20T06:50:43.218Z,23.88
2022-08-20T06:53:20.828Z,24.39
2022-08-20T06:55:54.494Z,24.48
2022-08-20T06:58:36.955Z,25.10
2022-08-20T07:01:11.197Z,25.76
2022-08-20T07:03:54.402Z,26.23
2022-08-20T07:06:27.515Z,27.18
2022-08-20T07:08:56.050Z,27.68
2022-08-20T07:11:27.829Z,27.28
2022-08-20T07:13:58.693Z,27.09
2022-08-20T07:16:27.187Z,26.95
2022-08-20T07:18:54.789Z,27.06
2022-08-20T07:21:22.039Z,27.12
2022-08-20T07:23:49.409Z,27.59
2022-08-20T07:26:18.042Z,28.00
2022-08-20T07:28:45.912Z,27.89
2022-08-20T07:31:32.172Z,27.81
2022-08-20T07:34:03.499Z,27.78
2022-08-20T07:36:31.503Z,27.87
2022-08-20T07:38:59.248Z,28.06
2022-08-20T07:41:34.037Z,27.80
2022-08-20T07:44:02.354Z,27.21
2022-08-20T07:46:31.605Z,26.99
2022-08-20T07:48:59.525Z,26.80
2022-08-20T07:51:27.571Z,26.62
2022-08-20T07:53:54.821Z,26.82
2022-08-20T07:56:24.442Z,26.78
2022-08-20T07:58:59.886Z,26.65
2022-08-20T08:01:32.111Z,26.69
2022-08-20T08:04:00.842Z,26.77
2022-08-20T08:06:31.484Z,27.11
2022-08-20T08:09:08.613Z,27.37
2022-08-20T08:11:44.965Z,27.97
2022-08-20T08:14:23.323Z,28.59
2022-08-20T08:16:54.616Z,29.26
2022-08-20T08:19:22.320Z,29.77
2022-08-20T08:21:49.875Z,30.36
2022-08-20T08:24:24.293Z,30.86
2022-08-20T08:26:53.768Z,31.49
2022-08-20T08:29:21.038Z,32.23
2022-08-20T08:31:48.464Z,32.42
2022-08-20T08:34:15.770Z,31.85
2022-08-20T08:43:31.684Z,31.89
2022-08-20T08:46:09.403Z,32.05
2022-08-20T08:48:43.753Z,31.89
2022-08-20T08:51:16.768Z,32.45
2022-08-20T08:53:54.689Z,32.30
2022-08-20T08:56:29.989Z,32.28
2022-08-20T08:59:07.673Z,33.18
2022-08-20T09:01:54.369Z,32.97
2022-08-20T09:04:37.107Z,33.49
2022-08-20T09:07:10.963Z,34.66
2022-08-20T09:09:44.142Z,34.77
2022-08-20T09:12:22.763Z,35.10
2022-08-20T09:14:51.777Z,35.89
2022-08-20T09:17:22.666Z,36.14
2022-08-20T09:19:52.220Z,36.72
2022-08-20T09:22:25.918Z,37.57
2022-08-20T09:24:53.854Z,37.80
2022-08-20T09:27:21.150Z,35.77
2022-08-20T09:29:48.623Z,33.46
2022-08-20T09:32:24.681Z,31.40
2022-08-20T09:34:56.496Z,29.26
2022-08-20T09:37:29.853Z,28.09
2022-08-20T09:39:59.698Z,26.71
2022-08-20T09:42:32.223Z,26.71
2022-08-20T09:45:00.747Z,26.68
2022-08-20T09:47:28.245Z,26.80
2022-08-20T09:49:55.621Z,26.46
2022-08-20T09:52:40.859Z,26.76
2022-08-20T09:55:34.399Z,27.17
2022-08-20T09:58:29.880Z,27.72
2022-08-20T10:00:57.345Z,27.26
2022-08-20T10:03:24.621Z,26.48
2022-08-20T10:05:51.866Z,25.78
2022-08-20T10:08:19.531Z,25.60
2022-08-20T10:10:47.031Z,25.58
2022-08-20T10:13:16.268Z,25.84
2022-08-20T10:15:44.078Z,26.05
2022-08-20T10:18:12.543Z,26.03
2022-08-20T10:20:40.816Z,26.16
2022-08-20T10:23:08.797Z,26.54
2022-08-20T10:25:36.024Z,26.56
2022-08-20T10:28:05.233Z,26.85
2022-08-20T10:30:32.928Z,27.43
2022-08-20T10:33:00.338Z,27.80
2022-08-20T10:35:28.356Z,28.07
2022-08-20T10:37:56.161Z,28.21
2022-08-20T10:40:23.711Z,27.76
2022-08-20T10:42:51.686Z,27.90
2022-08-20T10:45:25.822Z,27.79
2022-08-20T10:48:21.512Z,27.33
2022-08-20T10:50:50.684Z,27.46
2022-08-20T10:53:19.250Z,27.45
2022-08-20T10:55:46.917Z,27.44
2022-08-20T10:58:14.272Z,27.23
2022-08-20T11:00:42.321Z,26.91
2022-08-20T11:03:09.565Z,26.82
2022-08-20T11:05:37.096Z,26.94
2022-08-20T11:08:06.145Z,26.91
2022-08-20T11:10:36.627Z,26.96
2022-08-20T11:13:07.026Z,26.99
2022-08-20T11:15:42.369Z,27.03
2022-08-20T11:18:11.801Z,26.96
2022-08-20T11:20:39.589Z,27.13
2022-08-20T11:23:06.792Z,27.36
2022-08-20T11:25:34.050Z,27.66
2022-08-20T11:28:01.300Z,27.57
2022-08-20T11:30:36.241Z,27.45
2022-08-20T11:33:05.434Z,27.94
2022-08-20T11:35:49.278Z,27.90
2022-08-20T11:38:19.065Z,28.31
2022-08-20T11:40:46.981Z,28.41
2022-08-20T11:43:17.006Z,28.79
2022-08-20T11:45:51.648Z,28.86
2022-08-20T11:48:19.233Z,28.68
2022-08-20T11:50:47.433Z,29.05
2022-08-20T11:53:15.470Z,29.00
2022-08-20T11:55:44.068Z,28.96
2022-08-20T11:58:11.912Z,28.61
2022-08-20T12:00:39.426Z,28.68
2022-08-20T12:03:10.173Z,28.60
2022-08-20T12:05:41.050Z,28.63
2022-08-20T12:08:26.919Z,28.74
2022-08-20T12:11:02.528Z,28.99
2022-08-20T12:13:47.997Z,29.11
2022-08-20T12:16:19.429Z,29.25
2022-08-20T12:18:48.308Z,29.71
2022-08-20T12:21:16.707Z,29.99
2022-08-20T12:23:44.235Z,30.03
2022-08-20T12:26:11.896Z,30.10
2022-08-20T12:28:39.103Z,29.82
2022-08-20T12:31:06.636Z,29.98
2022-08-20T12:33:34.110Z,30.29
2022-08-20T12:36:04.231Z,30.48
2022-08-20T12:38:31.694Z,30.84
2022-08-20T12:40:58.888Z,30.91
2022-08-20T12:43:26.158Z,31.30
2022-08-20T12:45:53.389Z,29.88
2022-08-20T12:48:21.176Z,29.72
2022-08-20T12:50:49.958Z,29.86
2022-08-20T12:53:17.554Z,29.31
2022-08-20T12:55:46.404Z,28.66
2022-08-20T12:58:13.784Z,28.31
2022-08-20T13:00:47.849Z,28.51
2022-08-20T13:03:20.719Z,28.76
2022-08-20T13:05:49.188Z,28.63
2022-08-20T13:08:19.069Z,28.47
2022-08-20T13:10:46.865Z,28.43
2022-08-20T13:13:20.494Z,28.72
2022-08-20T13:15:51.225Z,28.93
2022-08-20T13:18:19.868Z,29.53
2022-08-20T13:20:47.647Z,29.43
2022-08-20T13:23:15.003Z,28.92
2022-08-20T13:25:42.274Z,28.63
2022-08-20T13:28:09.584Z,28.60
2022-08-20T13:30:38.784Z,28.88
2022-08-20T13:33:06.347Z,28.54
2022-08-20T13:35:34.053Z,27.29
2022-08-20T13:38:01.859Z,26.57
2022-08-20T13:40:29.304Z,25.83
2022-08-20T13:42:56.766Z,25.09
2022-08-20T13:45:25.324Z,25.08
2022-08-20T13:47:56.211Z,24.86
2022-08-20T13:50:26.267Z,24.71
2022-08-20T13:52:54.294Z,24.41
2022-08-20T13:55:27.863Z,24.62
2022-08-20T13:57:57.817Z,24.74
2022-08-20T14:00:32.321Z,24.95
2022-08-20T14:03:06.566Z,25.27
2022-08-20T14:05:39.155Z,25.62
2022-08-20T14:08:17.932Z,25.76
2022-08-20T14:10:51.403Z,25.98
2022-08-20T14:13:24.960Z,26.78
2022-08-20T14:15:53.383Z,28.18
2022-08-20T14:18:21.084Z,28.98
2022-08-20T14:20:48.798Z,29.66
2022-08-20T14:23:16.345Z,30.13
2022-08-20T14:25:49.367Z,30.20
2022-08-20T14:28:22.741Z,29.70
2022-08-20T14:30:53.220Z,29.59
2022-08-20T14:33:24.082Z,27.97
2022-08-20T14:35:53.066Z,28.18
2022-08-20T14:38:20.936Z,27.83
2022-08-20T14:40:50.203Z,27.64
2022-08-20T14:43:17.709Z,28.26
2022-08-20T14:45:44.988Z,28.44
2022-08-20T14:48:12.255Z,28.88
2022-08-20T14:50:40.500Z,29.13
2022-08-20T14:53:09.156Z,29.32
2022-08-20T14:55:38.384Z,29.29
2022-08-20T14:58:15.222Z,29.67
2022-08-20T15:00:44.085Z,29.80
2022-08-20T15:03:13.402Z,30.56
2022-08-20T15:05:40.849Z,31.16
2022-08-20T15:08:35.348Z,31.37
2022-08-20T15:11:02.819Z,30.93
2022-08-20T15:13:30.358Z,30.15
2022-08-20T15:15:57.775Z,29.20
2022-08-20T15:18:26.888Z,29.03
2022-08-20T15:20:54.245Z,28.88
2022-08-20T15:23:21.760Z,29.02
2022-08-20T15:25:48.961Z,28.87
2022-08-20T15:28:16.400Z,29.36
2022-08-20T15:30:43.665Z,29.35
2022-08-20T15:33:11.848Z,28.89
2022-08-20T15:35:39.655Z,28.62
2022-08-20T15:38:11.182Z,29.05
2022-08-20T15:40:38.606Z,29.08
2022-08-20T15:43:06.406Z,28.83
2022-08-20T15:45:35.738Z,29.25
2022-08-20T15:48:15.527Z,29.10
2022-08-20T15:51:10.743Z,29.04
2022-08-20T15:53:53.920Z,29.00
2022-08-20T15:57:03.844Z,28.95
2022-08-20T16:00:20.029Z,28.80
2022-08-20T16:03:10.795Z,29.09
2022-08-20T16:06:16.926Z,29.41
2022-08-20T16:09:32.957Z,29.38
2022-08-20T16:12:18.146Z,29.37
2022-08-20T16:14:51.015Z,29.94
2022-08-20T16:17:53.860Z,29.20
2022-08-20T16:20:48.076Z,29.03
2022-08-20T16:24:31.035Z,28.78
2022-08-20T16:28:13.606Z,28.85
2022-08-20T16:30:48.744Z,28.47
2022-08-20T16:34:34.354Z,29.01
2022-08-20T16:37:37.302Z,29.74
2022-08-20T16:41:19.515Z,29.53
2022-08-20T16:44:07.724Z,29.43
2022-08-20T16:47:50.592Z,29.42
2022-08-20T16:50:30.073Z,28.72
2022-08-20T16:54:12.908Z,28.63
2022-08-20T16:57:00.905Z,28.72
2022-08-20T17:00:45.310Z,28.67
2022-08-20T17:03:39.928Z,28.64
2022-08-20T17:07:26.771Z,28.43
2022-08-20T17:10:17.673Z,28.00
2022-08-20T17:14:00.699Z,27.69
2022-08-20T17:16:39.778Z,27.99
2022-08-20T17:19:28.723Z,27.79
2022-08-20T17:22:10.795Z,27.50
2022-08-20T17:24:38.682Z,27.54
2022-08-20T17:27:16.958Z,27.55
2022-08-20T17:29:56.712Z,27.53
2022-08-20T17:32:29.157Z,27.88
2022-08-20T17:35:01.795Z,27.73
2022-08-20T17:37:40.577Z,27.79
2022-08-20T17:40:20.178Z,27.63
2022-08-20T17:42:59.262Z,27.57
2022-08-20T17:45:44.276Z,27.58
2022-08-20T17:48:21.887Z,27.62
2022-08-20T17:50:52.272Z,27.23
2022-08-20T17:53:40.586Z,27.27
2022-08-20T17:56:27.899Z,27.12
2022-08-20T17:59:07.023Z,26.87
2022-08-20T18:01:38.307Z,26.74
2022-08-20T18:04:05.681Z,26.55
2022-08-20T18:06:42.159Z,26.35
2022-08-20T18:09:30.243Z,26.29
2022-08-20T18:12:35.990Z,26.02
2022-08-20T18:15:42.336Z,25.76
2022-08-20T18:18:57.498Z,25.58
2022-08-20T18:22:12.299Z,25.42
2022-08-20T18:25:15.219Z,25.13
2022-08-20T18:27:53.409Z,24.83
2022-08-20T18:30:25.921Z,24.50
2022-08-20T18:33:07.990Z,24.38
2022-08-20T18:35:45.884Z,24.26
2022-08-20T18:38:23.314Z,24.10
2022-08-20T18:40:55.370Z,23.86
2022-08-20T18:43:31.478Z,23.73
2022-08-20T18:46:20.895Z,23.64
2022-08-20T18:49:01.145Z,23.93
2022-08-20T18:51:49.405Z,23.72
2022-08-20T18:54:32.195Z,23.59
2022-08-20T18:57:52.586Z,23.35
2022-08-20T19:00:26.426Z,23.27
2022-08-20T19:03:17.727Z,23.03
2022-08-20T19:05:46.395Z,22.97
2022-08-20T19:08:30.445Z,22.75
2022-08-20T19:11:48.153Z,22.71
2022-08-20T19:14:44.751Z,22.85
2022-08-20T19:17:32.727Z,22.50
2022-08-20T19:20:11.824Z,22.77
2022-08-20T19:22:42.658Z,22.74
2022-08-20T19:25:30.843Z,22.51
2022-08-20T19:28:06.584Z,22.39
2022-08-20T19:30:41.638Z,22.47
2022-08-20T19:33:09.851Z,22.38
2022-08-20T19:35:41.183Z,22.55
2022-08-20T19:38:16.858Z,22.25
2022-08-20T19:40:46.237Z,22.28
2022-08-20T19:43:19.721Z,22.36
2022-08-20T19:45:56.997Z,22.29
2022-08-20T19:49:25.045Z,21.99
2022-08-20T19:52:38.827Z,21.82
2022-08-20T19:56:21.577Z,22.16
2022-08-20T20:00:06.818Z,22.04
2022-08-20T20:03:49.874Z,21.87
2022-08-20T20:07:33.018Z,21.66
2022-08-20T20:11:16.127Z,21.86
2022-08-20T20:14:58.848Z,21.46
2022-08-20T20:18:41.636Z,21.55
2022-08-20T20:22:23.853Z,21.42
2022-08-20T20:26:06.640Z,21.26
2022-08-20T20:29:49.878Z,21.35
2022-08-20T20:33:33.073Z,21.55
2022-08-20T20:37:15.994Z,21.20
2022-08-20T20:41:17.841Z,21.05
2022-08-20T20:45:01.068Z,21.04
2022-08-20T20:48:45.984Z,20.68
2022-08-20T20:51:26.068Z,20.97
2022-08-20T20:55:05.374Z,20.64
2022-08-20T20:57:37.999Z,20.51
2022-08-20T21:00:13.716Z,20.78
2022-08-20T21:02:41.507Z,20.36
2022-08-20T21:05:11.696Z,20.01
2022-08-20T21:08:14.233Z,20.03
2022-08-20T21:10:43.362Z,19.86
2022-08-20T21:13:11.682Z,19.90
2022-08-20T21:15:40.076Z,19.79
2022-08-20T21:18:09.240Z,19.69
2022-08-20T21:20:37.341Z,19.84
2022-08-20T21:23:05.408Z,19.73
2022-08-20T21:25:34.518Z,19.70
2022-08-20T21:28:02.429Z,19.38
2022-08-20T21:30:30.152Z,19.23
2022-08-20T21:32:57.648Z,19.06
2022-08-20T21:35:25.421Z,18.98
2022-08-20T21:37:52.743Z,19.13
2022-08-20T21:40:21.788Z,19.40
2022-08-20T21:42:49.463Z,18.96
2022-08-20T21:45:19.551Z,19.05
2022-08-20T21:47:48.916Z,18.74
2022-08-20T21:50:20.171Z,18.63
2022-08-20T21:52:59.871Z,18.79
2022-08-20T21:55:34.071Z,19.03
2022-08-20T21:58:05.979Z,19.15
2022-08-20T22:01:00.178Z,19.04
2022-08-20T22:03:33.665Z,18.76
2022-08-20T22:06:07.463Z,18.58
2022-08-20T22:08:35.168Z,18.69
2022-08-20T22:11:05.058Z,18.88
2022-08-20T22:13:34.234Z,18.84
2022-08-20T22:16:08.923Z,18.63
2022-08-20T22:18:37.255Z,18.48
2022-08-20T22:21:11.360Z,18.91
2022-08-20T22:23:40.141Z,18.99
2022-08-20T22:26:09.258Z,18.52
2022-08-20T22:28:37.425Z,18.77
2022-08-20T22:31:06.211Z,18.68
2022-08-20T22:33:35.162Z,18.89
2022-08-20T22:36:06.951Z,18.90
2022-08-20T22:38:34.380Z,18.88
2022-08-20T22:41:04.176Z,18.44
2022-08-20T22:43:33.643Z,18.35
2022-08-20T22:46:03.834Z,18.15
2022-08-20T22:48:31.285Z,18.36
2022-08-20T22:50:59.045Z,18.29
2022-08-20T22:53:28.075Z,18.30
2022-08-20T22:55:55.829Z,18.41
2022-08-20T22:58:31.211Z,18.43
2022-08-20T23:01:02.202Z,18.42
2022-08-20T23:03:39.518Z,18.54
2022-08-20T23:06:10.342Z,18.38
2022-08-20T23:08:39.816Z,18.55
2022-08-20T23:11:08.058Z,18.57
2022-08-20T23:13:35.485Z,18.10
2022-08-20T23:16:04.690Z,18.03
2022-08-20T23:18:32.679Z,18.38
2022-08-20T23:21:00.767Z,18.36
2022-08-20T23:23:28.332Z,18.02
2022-08-20T23:25:56.187Z,18.18
2022-08-20T23:28:26.578Z,18.20
2022-08-20T23:30:54.130Z,18.28
2022-08-20T23:33:21.669Z,18.19
2022-08-20T23:35:49.719Z,18.09
2022-08-20T23:38:17.616Z,18.11
2022-08-20T23:40:45.006Z,18.15
2022-08-20T23:43:12.229Z,18.26
2022-08-20T23:45:40.370Z,18.19
2022-08-20T23:48:09.470Z,17.69
2022-08-20T23:50:38.132Z,17.60
2022-08-20T23:53:06.193Z,17.79
2022-08-20T23:55:34.666Z,17.79
2022-08-20T23:58:02.383Z,17.90
